sensor_id;sensor_type;location;lat;lon;timestamp;temperature;humidity
7174;DHT22;3628;48.654;8.932;2023-07-31T00:01:20;15.40;99.90
7174;DHT22;3628;48.654;8.932;2023-07-31T00:03:46;15.20;99.90
7174;DHT22;3628;48.654;8.932;2023-07-31T00:06:12;15.10;99.90
7174;DHT22;3628;48.654;8.932;2023-07-31T00:08:37;15.10;99.90
7174;DHT22;3628;48.654;8.932;2023-07-31T00:11:03;15.00;99.90
7174;DHT22;3628;48.654;8.932;2023-07-31T00:13:29;15.00;99.90
7174;DHT22;3628;48.654;8.932;2023-07-31T00:15:54;14.80;99.90
7174;DHT22;3628;48.654;8.932;2023-07-31T00:18:20;14.80;99.90
7174;DHT22;3628;48.654;8.932;2023-07-31T00:20:45;15.00;99.90
7174;DHT22;3628;48.654;8.932;2023-07-31T00:23:11;14.90;99.90
7174;DHT22;3628;48.654;8.932;2023-07-31T00:25:36;14.70;99.90
7174;DHT22;3628;48.654;8.932;2023-07-31T00:28:02;14.80;99.90
7174;DHT22;3628;48.654;8.932;2023-07-31T00:30:28;15.10;99.90
7174;DHT22;3628;48.654;8.932;2023-07-31T00:32:53;15.20;99.90
7174;DHT22;3628;48.654;8.932;2023-07-31T00:35:19;15.20;99.90
7174;DHT22;3628;48.654;8.932;2023-07-31T00:37:44;15.10;99.90
7174;DHT22;3628;48.654;8.932;2023-07-31T00:40:10;15.00;99.90
7174;DHT22;3628;48.654;8.932;2023-07-31T00:42:35;14.80;99.90
7174;DHT22;3628;48.654;8.932;2023-07-31T00:45:01;14.70;99.90
7174;DHT22;3628;48.654;8.932;2023-07-31T00:47:27;14.80;99.90
7174;DHT22;3628;48.654;8.932;2023-07-31T00:49:52;14.70;99.90
7174;DHT22;3628;48.654;8.932;2023-07-31T00:52:18;14.70;99.90
7174;DHT22;3628;48.654;8.932;2023-07-31T00:54:44;14.70;99.90
7174;DHT22;3628;48.654;8.932;2023-07-31T00:57:10;14.60;99.90
7174;DHT22;3628;48.654;8.932;2023-07-31T00:59:36;14.60;99.90
7174;DHT22;3628;48.654;8.932;2023-07-31T01:02:02;14.70;99.90
7174;DHT22;3628;48.654;8.932;2023-07-31T01:04:28;14.50;99.90
7174;DHT22;3628;48.654;8.932;2023-07-31T01:09:43;14.40;99.90
7174;DHT22;3628;48.654;8.932;2023-07-31T01:12:14;14.40;99.90
7174;DHT22;3628;48.654;8.932;2023-07-31T01:14:40;14.60;99.90
7174;DHT22;3628;48.654;8.932;2023-07-31T01:17:05;14.50;99.90
7174;DHT22;3628;48.654;8.932;2023-07-31T01:19:31;14.40;99.90
7174;DHT22;3628;48.654;8.932;2023-07-31T01:28:13;14.20;99.90
7174;DHT22;3628;48.654;8.932;2023-07-31T01:30:44;14.20;99.90
7174;DHT22;3628;48.654;8.932;2023-07-31T01:33:10;14.20;99.90
7174;DHT22;3628;48.654;8.932;2023-07-31T01:35:37;14.10;99.90
7174;DHT22;3628;48.654;8.932;2023-07-31T01:38:04;14.10;99.90
7174;DHT22;3628;48.654;8.932;2023-07-31T01:40:30;14.10;99.90
7174;DHT22;3628;48.654;8.932;2023-07-31T01:42:55;14.10;99.90
7174;DHT22;3628;48.654;8.932;2023-07-31T01:45:21;14.10;99.90
7174;DHT22;3628;48.654;8.932;2023-07-31T01:47:46;14.10;99.90
7174;DHT22;3628;48.654;8.932;2023-07-31T01:50:12;14.00;99.90
7174;DHT22;3628;48.654;8.932;2023-07-31T01:52:37;13.90;99.90
7174;DHT22;3628;48.654;8.932;2023-07-31T01:55:03;14.00;99.90
7174;DHT22;3628;48.654;8.932;2023-07-31T01:57:29;13.90;99.90
7174;DHT22;3628;48.654;8.932;2023-07-31T01:59:55;14.00;99.90
7174;DHT22;3628;48.654;8.932;2023-07-31T02:02:22;14.00;99.90
7174;DHT22;3628;48.654;8.932;2023-07-31T02:04:48;14.00;99.90
7174;DHT22;3628;48.654;8.932;2023-07-31T02:07:14;14.00;99.90
7174;DHT22;3628;48.654;8.932;2023-07-31T02:09:40;14.00;99.90
7174;DHT22;3628;48.654;8.932;2023-07-31T02:12:05;14.00;99.90
7174;DHT22;3628;48.654;8.932;2023-07-31T02:14:34;14.10;99.90
7174;DHT22;3628;48.654;8.932;2023-07-31T02:16:59;14.20;99.90
7174;DHT22;3628;48.654;8.932;2023-07-31T02:19:25;14.20;99.90
7174;DHT22;3628;48.654;8.932;2023-07-31T02:21:51;14.30;99.90
7174;DHT22;3628;48.654;8.932;2023-07-31T02:24:16;14.40;99.90
7174;DHT22;3628;48.654;8.932;2023-07-31T02:26:42;14.20;99.90
7174;DHT22;3628;48.654;8.932;2023-07-31T02:29:08;14.00;99.90
7174;DHT22;3628;48.654;8.932;2023-07-31T02:31:34;13.90;99.90
7174;DHT22;3628;48.654;8.932;2023-07-31T02:33:59;14.00;99.90
7174;DHT22;3628;48.654;8.932;2023-07-31T02:36:25;14.20;99.90
7174;DHT22;3628;48.654;8.932;2023-07-31T02:38:50;14.20;99.90
7174;DHT22;3628;48.654;8.932;2023-07-31T02:41:16;14.00;99.90
7174;DHT22;3628;48.654;8.932;2023-07-31T02:43:41;14.00;99.90
7174;DHT22;3628;48.654;8.932;2023-07-31T02:46:07;14.00;99.90
7174;DHT22;3628;48.654;8.932;2023-07-31T02:48:33;14.00;99.90
7174;DHT22;3628;48.654;8.932;2023-07-31T02:50:58;14.10;99.90
7174;DHT22;3628;48.654;8.932;2023-07-31T02:53:24;14.20;99.90
7174;DHT22;3628;48.654;8.932;2023-07-31T02:55:49;14.20;99.90
7174;DHT22;3628;48.654;8.932;2023-07-31T02:58:15;14.20;99.90
7174;DHT22;3628;48.654;8.932;2023-07-31T03:00:44;14.10;99.90
7174;DHT22;3628;48.654;8.932;2023-07-31T03:03:10;14.20;99.90
7174;DHT22;3628;48.654;8.932;2023-07-31T03:05:35;14.30;99.90
7174;DHT22;3628;48.654;8.932;2023-07-31T03:08:01;14.30;99.90
7174;DHT22;3628;48.654;8.932;2023-07-31T03:10:27;14.20;99.90
7174;DHT22;3628;48.654;8.932;2023-07-31T03:12:52;14.20;99.90
7174;DHT22;3628;48.654;8.932;2023-07-31T03:15:18;14.20;99.90
7174;DHT22;3628;48.654;8.932;2023-07-31T03:17:44;13.90;99.90
7174;DHT22;3628;48.654;8.932;2023-07-31T03:20:10;14.00;99.90
7174;DHT22;3628;48.654;8.932;2023-07-31T03:22:35;14.10;99.90
7174;DHT22;3628;48.654;8.932;2023-07-31T03:25:04;14.10;99.90
7174;DHT22;3628;48.654;8.932;2023-07-31T03:27:30;14.00;99.90
7174;DHT22;3628;48.654;8.932;2023-07-31T03:29:55;14.00;99.90
7174;DHT22;3628;48.654;8.932;2023-07-31T03:32:21;14.20;99.90
7174;DHT22;3628;48.654;8.932;2023-07-31T03:34:47;14.20;99.90
7174;DHT22;3628;48.654;8.932;2023-07-31T03:37:12;14.20;99.90
7174;DHT22;3628;48.654;8.932;2023-07-31T03:39:38;14.20;99.90
7174;DHT22;3628;48.654;8.932;2023-07-31T03:42:03;14.20;99.90
7174;DHT22;3628;48.654;8.932;2023-07-31T03:44:29;14.30;99.90
7174;DHT22;3628;48.654;8.932;2023-07-31T03:46:55;14.30;99.90
7174;DHT22;3628;48.654;8.932;2023-07-31T03:49:20;14.30;99.90
7174;DHT22;3628;48.654;8.932;2023-07-31T03:51:46;14.40;99.90
7174;DHT22;3628;48.654;8.932;2023-07-31T03:54:11;14.30;99.90
7174;DHT22;3628;48.654;8.932;2023-07-31T03:56:38;14.30;99.90
7174;DHT22;3628;48.654;8.932;2023-07-31T03:59:04;14.20;99.90
7174;DHT22;3628;48.654;8.932;2023-07-31T04:01:29;14.30;99.90
7174;DHT22;3628;48.654;8.932;2023-07-31T04:03:55;14.40;99.90
7174;DHT22;3628;48.654;8.932;2023-07-31T04:06:20;14.70;99.90
7174;DHT22;3628;48.654;8.932;2023-07-31T04:08:46;14.50;99.90
7174;DHT22;3628;48.654;8.932;2023-07-31T04:11:12;14.50;99.90
7174;DHT22;3628;48.654;8.932;2023-07-31T04:13:40;14.50;99.90
7174;DHT22;3628;48.654;8.932;2023-07-31T04:16:06;14.50;99.90
7174;DHT22;3628;48.654;8.932;2023-07-31T04:18:31;14.40;99.90
7174;DHT22;3628;48.654;8.932;2023-07-31T04:20:58;14.60;99.90
7174;DHT22;3628;48.654;8.932;2023-07-31T04:23:25;14.40;99.90
7174;DHT22;3628;48.654;8.932;2023-07-31T04:25:51;14.60;99.90
7174;DHT22;3628;48.654;8.932;2023-07-31T04:28:16;14.60;99.90
7174;DHT22;3628;48.654;8.932;2023-07-31T04:30:42;14.70;99.90
7174;DHT22;3628;48.654;8.932;2023-07-31T04:33:08;14.60;99.90
7174;DHT22;3628;48.654;8.932;2023-07-31T04:35:33;14.50;99.90
7174;DHT22;3628;48.654;8.932;2023-07-31T04:37:59;14.60;99.90
7174;DHT22;3628;48.654;8.932;2023-07-31T04:40:24;14.70;99.90
7174;DHT22;3628;48.654;8.932;2023-07-31T04:42:50;14.70;99.90
7174;DHT22;3628;48.654;8.932;2023-07-31T04:45:16;14.80;99.90
7174;DHT22;3628;48.654;8.932;2023-07-31T04:47:41;15.00;99.90
7174;DHT22;3628;48.654;8.932;2023-07-31T04:50:07;15.00;99.90
7174;DHT22;3628;48.654;8.932;2023-07-31T04:52:33;15.00;99.90
7174;DHT22;3628;48.654;8.932;2023-07-31T04:54:58;15.10;99.90
7174;DHT22;3628;48.654;8.932;2023-07-31T04:57:24;15.10;99.90
7174;DHT22;3628;48.654;8.932;2023-07-31T04:59:49;15.20;99.90
7174;DHT22;3628;48.654;8.932;2023-07-31T05:02:15;15.20;99.90
7174;DHT22;3628;48.654;8.932;2023-07-31T05:04:40;15.20;99.90
7174;DHT22;3628;48.654;8.932;2023-07-31T05:07:06;15.20;99.90
7174;DHT22;3628;48.654;8.932;2023-07-31T05:09:31;15.30;99.90
7174;DHT22;3628;48.654;8.932;2023-07-31T05:11:57;15.30;99.90
7174;DHT22;3628;48.654;8.932;2023-07-31T05:14:23;15.30;99.90
7174;DHT22;3628;48.654;8.932;2023-07-31T05:16:48;15.30;99.90
7174;DHT22;3628;48.654;8.932;2023-07-31T05:19:14;15.40;99.90
7174;DHT22;3628;48.654;8.932;2023-07-31T05:21:40;15.60;99.90
7174;DHT22;3628;48.654;8.932;2023-07-31T05:24:05;15.70;99.90
7174;DHT22;3628;48.654;8.932;2023-07-31T05:26:31;15.80;99.90
7174;DHT22;3628;48.654;8.932;2023-07-31T05:28:56;15.90;99.90
7174;DHT22;3628;48.654;8.932;2023-07-31T05:31:23;16.00;99.90
7174;DHT22;3628;48.654;8.932;2023-07-31T05:33:50;16.00;99.90
7174;DHT22;3628;48.654;8.932;2023-07-31T05:36:16;16.20;99.90
7174;DHT22;3628;48.654;8.932;2023-07-31T05:38:41;16.30;99.90
7174;DHT22;3628;48.654;8.932;2023-07-31T05:41:09;16.40;99.90
7174;DHT22;3628;48.654;8.932;2023-07-31T05:43:35;16.50;99.90
7174;DHT22;3628;48.654;8.932;2023-07-31T05:46:00;16.60;99.90
7174;DHT22;3628;48.654;8.932;2023-07-31T05:48:26;16.70;99.90
7174;DHT22;3628;48.654;8.932;2023-07-31T05:50:52;16.80;99.90
7174;DHT22;3628;48.654;8.932;2023-07-31T05:53:18;16.70;99.90
7174;DHT22;3628;48.654;8.932;2023-07-31T05:55:43;16.70;99.90
7174;DHT22;3628;48.654;8.932;2023-07-31T05:58:09;16.70;99.90
7174;DHT22;3628;48.654;8.932;2023-07-31T06:00:34;16.70;99.90
7174;DHT22;3628;48.654;8.932;2023-07-31T06:03:00;16.80;99.90
7174;DHT22;3628;48.654;8.932;2023-07-31T06:05:25;16.80;99.90
7174;DHT22;3628;48.654;8.932;2023-07-31T06:07:53;16.90;99.90
7174;DHT22;3628;48.654;8.932;2023-07-31T06:10:19;17.00;99.90
7174;DHT22;3628;48.654;8.932;2023-07-31T06:12:44;17.10;99.90
7174;DHT22;3628;48.654;8.932;2023-07-31T06:15:10;17.20;99.90
7174;DHT22;3628;48.654;8.932;2023-07-31T06:17:36;17.30;99.90
7174;DHT22;3628;48.654;8.932;2023-07-31T06:20:02;17.40;99.90
7174;DHT22;3628;48.654;8.932;2023-07-31T06:22:30;17.50;99.90
7174;DHT22;3628;48.654;8.932;2023-07-31T06:24:56;17.50;99.90
7174;DHT22;3628;48.654;8.932;2023-07-31T06:27:21;17.60;99.90
7174;DHT22;3628;48.654;8.932;2023-07-31T06:29:47;17.70;99.90
7174;DHT22;3628;48.654;8.932;2023-07-31T06:32:13;17.90;99.90
7174;DHT22;3628;48.654;8.932;2023-07-31T06:34:39;17.90;99.90
7174;DHT22;3628;48.654;8.932;2023-07-31T06:37:05;18.00;99.90
7174;DHT22;3628;48.654;8.932;2023-07-31T06:39:30;18.10;99.90
7174;DHT22;3628;48.654;8.932;2023-07-31T06:41:56;18.10;99.90
7174;DHT22;3628;48.654;8.932;2023-07-31T06:44:21;18.20;99.90
7174;DHT22;3628;48.654;8.932;2023-07-31T06:46:47;18.40;99.90
7174;DHT22;3628;48.654;8.932;2023-07-31T06:49:13;18.40;99.90
7174;DHT22;3628;48.654;8.932;2023-07-31T06:51:40;18.60;99.90
7174;DHT22;3628;48.654;8.932;2023-07-31T06:54:07;18.80;99.90
7174;DHT22;3628;48.654;8.932;2023-07-31T06:56:33;18.90;99.90
7174;DHT22;3628;48.654;8.932;2023-07-31T06:58:58;19.00;99.90
7174;DHT22;3628;48.654;8.932;2023-07-31T07:01:24;19.00;99.90
7174;DHT22;3628;48.654;8.932;2023-07-31T07:03:50;19.10;99.90
7174;DHT22;3628;48.654;8.932;2023-07-31T07:06:19;19.10;99.90
7174;DHT22;3628;48.654;8.932;2023-07-31T07:08:45;19.20;99.90
7174;DHT22;3628;48.654;8.932;2023-07-31T07:11:10;19.40;99.90
7174;DHT22;3628;48.654;8.932;2023-07-31T07:13:36;19.40;99.90
7174;DHT22;3628;48.654;8.932;2023-07-31T07:16:01;19.30;99.90
7174;DHT22;3628;48.654;8.932;2023-07-31T07:18:27;19.40;99.90
7174;DHT22;3628;48.654;8.932;2023-07-31T07:20:53;19.40;99.90
7174;DHT22;3628;48.654;8.932;2023-07-31T07:23:20;19.50;99.90
7174;DHT22;3628;48.654;8.932;2023-07-31T07:25:46;19.40;99.90
7174;DHT22;3628;48.654;8.932;2023-07-31T07:28:12;19.50;99.90
7174;DHT22;3628;48.654;8.932;2023-07-31T07:30:38;19.60;99.90
7174;DHT22;3628;48.654;8.932;2023-07-31T07:33:04;19.60;99.90
7174;DHT22;3628;48.654;8.932;2023-07-31T07:35:29;19.50;99.90
7174;DHT22;3628;48.654;8.932;2023-07-31T07:37:55;19.40;99.90
7174;DHT22;3628;48.654;8.932;2023-07-31T07:40:21;19.30;99.90
7174;DHT22;3628;48.654;8.932;2023-07-31T07:42:46;19.30;99.90
7174;DHT22;3628;48.654;8.932;2023-07-31T07:45:12;19.50;99.90
7174;DHT22;3628;48.654;8.932;2023-07-31T07:47:40;19.60;99.90
7174;DHT22;3628;48.654;8.932;2023-07-31T07:50:06;19.80;99.90
7174;DHT22;3628;48.654;8.932;2023-07-31T07:52:32;19.80;99.90
7174;DHT22;3628;48.654;8.932;2023-07-31T07:54:57;20.00;99.90
7174;DHT22;3628;48.654;8.932;2023-07-31T07:57:23;20.10;99.90
7174;DHT22;3628;48.654;8.932;2023-07-31T07:59:48;20.30;99.90
7174;DHT22;3628;48.654;8.932;2023-07-31T08:02:14;20.60;99.90
7174;DHT22;3628;48.654;8.932;2023-07-31T08:04:40;20.90;99.90
7174;DHT22;3628;48.654;8.932;2023-07-31T08:07:05;21.30;99.90
7174;DHT22;3628;48.654;8.932;2023-07-31T08:09:31;21.40;99.90
7174;DHT22;3628;48.654;8.932;2023-07-31T08:11:56;21.40;99.90
7174;DHT22;3628;48.654;8.932;2023-07-31T08:14:27;21.40;99.90
7174;DHT22;3628;48.654;8.932;2023-07-31T08:16:52;21.60;99.90
7174;DHT22;3628;48.654;8.932;2023-07-31T08:19:18;21.70;99.90
7174;DHT22;3628;48.654;8.932;2023-07-31T08:21:44;21.90;99.90
7174;DHT22;3628;48.654;8.932;2023-07-31T08:24:09;22.10;99.90
7174;DHT22;3628;48.654;8.932;2023-07-31T08:26:35;22.10;99.90
7174;DHT22;3628;48.654;8.932;2023-07-31T08:29:01;21.90;99.90
7174;DHT22;3628;48.654;8.932;2023-07-31T08:31:26;21.90;99.90
7174;DHT22;3628;48.654;8.932;2023-07-31T08:33:52;21.80;99.90
7174;DHT22;3628;48.654;8.932;2023-07-31T08:36:18;21.70;99.90
7174;DHT22;3628;48.654;8.932;2023-07-31T08:38:45;21.70;99.90
7174;DHT22;3628;48.654;8.932;2023-07-31T08:41:11;21.70;99.90
7174;DHT22;3628;48.654;8.932;2023-07-31T08:43:38;21.60;99.90
7174;DHT22;3628;48.654;8.932;2023-07-31T08:46:05;21.40;99.90
7174;DHT22;3628;48.654;8.932;2023-07-31T08:48:31;21.40;99.90
7174;DHT22;3628;48.654;8.932;2023-07-31T08:50:57;21.40;99.90
7174;DHT22;3628;48.654;8.932;2023-07-31T08:53:23;21.40;99.90
7174;DHT22;3628;48.654;8.932;2023-07-31T08:55:49;21.40;99.90
7174;DHT22;3628;48.654;8.932;2023-07-31T08:58:15;21.40;99.90
7174;DHT22;3628;48.654;8.932;2023-07-31T09:00:41;21.30;99.90
7174;DHT22;3628;48.654;8.932;2023-07-31T09:03:13;21.30;99.90
7174;DHT22;3628;48.654;8.932;2023-07-31T09:05:42;21.30;99.90
7174;DHT22;3628;48.654;8.932;2023-07-31T09:08:09;21.30;99.90
7174;DHT22;3628;48.654;8.932;2023-07-31T09:10:35;21.30;99.90
7174;DHT22;3628;48.654;8.932;2023-07-31T09:13:06;21.60;99.90
7174;DHT22;3628;48.654;8.932;2023-07-31T09:15:31;21.80;99.90
7174;DHT22;3628;48.654;8.932;2023-07-31T09:18:01;21.90;99.90
7174;DHT22;3628;48.654;8.932;2023-07-31T09:20:27;21.90;99.90
7174;DHT22;3628;48.654;8.932;2023-07-31T09:22:53;21.90;99.90
7174;DHT22;3628;48.654;8.932;2023-07-31T09:25:23;21.90;99.90
7174;DHT22;3628;48.654;8.932;2023-07-31T09:28:03;21.80;99.90
7174;DHT22;3628;48.654;8.932;2023-07-31T09:30:29;21.80;99.90
7174;DHT22;3628;48.654;8.932;2023-07-31T09:33:03;21.60;99.90
7174;DHT22;3628;48.654;8.932;2023-07-31T09:35:30;21.60;99.90
7174;DHT22;3628;48.654;8.932;2023-07-31T09:38:15;21.70;99.90
7174;DHT22;3628;48.654;8.932;2023-07-31T09:40:45;22.00;99.90
7174;DHT22;3628;48.654;8.932;2023-07-31T09:43:21;22.20;99.90
7174;DHT22;3628;48.654;8.932;2023-07-31T09:45:47;22.20;99.90
7174;DHT22;3628;48.654;8.932;2023-07-31T09:48:15;22.20;99.90
7174;DHT22;3628;48.654;8.932;2023-07-31T09:50:42;22.20;99.90
7174;DHT22;3628;48.654;8.932;2023-07-31T09:53:09;22.30;99.90
7174;DHT22;3628;48.654;8.932;2023-07-31T09:55:35;22.30;99.90
7174;DHT22;3628;48.654;8.932;2023-07-31T09:58:08;22.20;99.90
7174;DHT22;3628;48.654;8.932;2023-07-31T10:00:35;22.30;99.90
7174;DHT22;3628;48.654;8.932;2023-07-31T10:03:04;22.50;99.90
7174;DHT22;3628;48.654;8.932;2023-07-31T10:05:36;22.80;99.90
7174;DHT22;3628;48.654;8.932;2023-07-31T10:08:02;23.10;99.90
7174;DHT22;3628;48.654;8.932;2023-07-31T10:10:28;23.30;99.90
7174;DHT22;3628;48.654;8.932;2023-07-31T10:12:55;23.20;99.90
7174;DHT22;3628;48.654;8.932;2023-07-31T10:15:21;23.10;99.90
7174;DHT22;3628;48.654;8.932;2023-07-31T10:17:48;23.10;99.90
7174;DHT22;3628;48.654;8.932;2023-07-31T10:20:15;23.40;99.90
7174;DHT22;3628;48.654;8.932;2023-07-31T10:22:44;23.60;99.90
7174;DHT22;3628;48.654;8.932;2023-07-31T10:25:13;23.70;99.90
7174;DHT22;3628;48.654;8.932;2023-07-31T10:27:39;24.00;99.90
7174;DHT22;3628;48.654;8.932;2023-07-31T10:30:11;24.30;99.30
7174;DHT22;3628;48.654;8.932;2023-07-31T10:32:40;24.50;98.40
7174;DHT22;3628;48.654;8.932;2023-07-31T10:35:07;24.50;97.50
7174;DHT22;3628;48.654;8.932;2023-07-31T10:37:40;24.50;97.50
7174;DHT22;3628;48.654;8.932;2023-07-31T10:42:35;24.40;95.90
7174;DHT22;3628;48.654;8.932;2023-07-31T10:45:03;24.40;96.80
7174;DHT22;3628;48.654;8.932;2023-07-31T10:47:29;24.30;95.80
7174;DHT22;3628;48.654;8.932;2023-07-31T10:50:20;23.90;95.80
7174;DHT22;3628;48.654;8.932;2023-07-31T10:52:51;23.70;96.20
7174;DHT22;3628;48.654;8.932;2023-07-31T10:57:53;24.00;96.60
7174;DHT22;3628;48.654;8.932;2023-07-31T11:00:28;24.20;96.20
7174;DHT22;3628;48.654;8.932;2023-07-31T11:02:59;24.40;96.70
7174;DHT22;3628;48.654;8.932;2023-07-31T11:10:38;24.00;95.60
7174;DHT22;3628;48.654;8.932;2023-07-31T11:13:06;23.80;96.40
7174;DHT22;3628;48.654;8.932;2023-07-31T11:15:32;23.70;96.40
7174;DHT22;3628;48.654;8.932;2023-07-31T11:18:00;23.80;95.70
7174;DHT22;3628;48.654;8.932;2023-07-31T11:20:30;23.80;95.90
7174;DHT22;3628;48.654;8.932;2023-07-31T11:22:59;23.90;96.40
7174;DHT22;3628;48.654;8.932;2023-07-31T11:25:25;23.70;96.20
7174;DHT22;3628;48.654;8.932;2023-07-31T11:27:50;23.60;96.20
7174;DHT22;3628;48.654;8.932;2023-07-31T11:30:19;23.60;96.20
7174;DHT22;3628;48.654;8.932;2023-07-31T11:32:45;23.50;96.10
7174;DHT22;3628;48.654;8.932;2023-07-31T11:35:14;23.40;96.40
7174;DHT22;3628;48.654;8.932;2023-07-31T11:37:43;23.30;96.60
7174;DHT22;3628;48.654;8.932;2023-07-31T11:40:10;23.10;96.10
7174;DHT22;3628;48.654;8.932;2023-07-31T11:42:36;23.00;96.70
7174;DHT22;3628;48.654;8.932;2023-07-31T11:45:08;22.90;97.10
7174;DHT22;3628;48.654;8.932;2023-07-31T11:47:36;23.00;97.90
7174;DHT22;3628;48.654;8.932;2023-07-31T11:50:06;22.90;97.90
7174;DHT22;3628;48.654;8.932;2023-07-31T11:52:42;22.80;99.90
7174;DHT22;3628;48.654;8.932;2023-07-31T11:55:10;22.60;99.90
7174;DHT22;3628;48.654;8.932;2023-07-31T11:57:38;22.60;99.70
7174;DHT22;3628;48.654;8.932;2023-07-31T12:00:06;22.50;99.00
7174;DHT22;3628;48.654;8.932;2023-07-31T12:02:32;22.50;98.70
7174;DHT22;3628;48.654;8.932;2023-07-31T12:04:58;22.50;99.30
7174;DHT22;3628;48.654;8.932;2023-07-31T12:07:24;22.50;98.90
7174;DHT22;3628;48.654;8.932;2023-07-31T12:09:56;22.50;98.20
7174;DHT22;3628;48.654;8.932;2023-07-31T12:12:23;22.60;98.30
7174;DHT22;3628;48.654;8.932;2023-07-31T12:14:49;22.80;98.20
7174;DHT22;3628;48.654;8.932;2023-07-31T12:17:16;22.80;97.20
7174;DHT22;3628;48.654;8.932;2023-07-31T12:19:42;22.80;98.20
7174;DHT22;3628;48.654;8.932;2023-07-31T12:22:14;22.90;98.20
7174;DHT22;3628;48.654;8.932;2023-07-31T12:24:42;23.00;98.30
7174;DHT22;3628;48.654;8.932;2023-07-31T12:27:14;22.90;98.40
7174;DHT22;3628;48.654;8.932;2023-07-31T12:29:41;22.90;98.40
7174;DHT22;3628;48.654;8.932;2023-07-31T12:32:22;23.00;98.90
7174;DHT22;3628;48.654;8.932;2023-07-31T12:34:48;23.20;99.50
7174;DHT22;3628;48.654;8.932;2023-07-31T12:37:13;23.40;98.30
7174;DHT22;3628;48.654;8.932;2023-07-31T12:39:39;23.80;98.50
7174;DHT22;3628;48.654;8.932;2023-07-31T12:42:05;24.20;98.20
7174;DHT22;3628;48.654;8.932;2023-07-31T12:44:31;24.60;97.70
7174;DHT22;3628;48.654;8.932;2023-07-31T12:46:57;24.90;96.60
7174;DHT22;3628;48.654;8.932;2023-07-31T12:49:22;25.30;96.40
7174;DHT22;3628;48.654;8.932;2023-07-31T12:51:48;25.30;94.90
7174;DHT22;3628;48.654;8.932;2023-07-31T12:54:14;25.50;95.40
7174;DHT22;3628;48.654;8.932;2023-07-31T12:56:40;25.90;95.50
7174;DHT22;3628;48.654;8.932;2023-07-31T12:59:05;26.10;92.60
7174;DHT22;3628;48.654;8.932;2023-07-31T13:01:31;26.00;92.50
7174;DHT22;3628;48.654;8.932;2023-07-31T13:03:57;25.80;91.70
7174;DHT22;3628;48.654;8.932;2023-07-31T13:06:24;26.00;92.70
7174;DHT22;3628;48.654;8.932;2023-07-31T13:08:50;26.10;92.50
7174;DHT22;3628;48.654;8.932;2023-07-31T13:11:15;26.20;92.10
7174;DHT22;3628;48.654;8.932;2023-07-31T13:13:41;26.30;92.20
7174;DHT22;3628;48.654;8.932;2023-07-31T13:16:06;26.20;91.60
7174;DHT22;3628;48.654;8.932;2023-07-31T13:18:32;26.30;92.00
7174;DHT22;3628;48.654;8.932;2023-07-31T13:20:57;26.20;91.80
7174;DHT22;3628;48.654;8.932;2023-07-31T13:23:23;26.00;92.10
7174;DHT22;3628;48.654;8.932;2023-07-31T13:25:48;25.80;92.00
7174;DHT22;3628;48.654;8.932;2023-07-31T13:28:14;25.60;92.40
7174;DHT22;3628;48.654;8.932;2023-07-31T13:30:39;25.60;93.10
7174;DHT22;3628;48.654;8.932;2023-07-31T13:33:05;25.30;93.10
7174;DHT22;3628;48.654;8.932;2023-07-31T13:35:31;25.30;92.60
7174;DHT22;3628;48.654;8.932;2023-07-31T13:37:57;25.00;92.40
7174;DHT22;3628;48.654;8.932;2023-07-31T13:40:22;24.90;93.20
7174;DHT22;3628;48.654;8.932;2023-07-31T13:42:48;25.00;93.60
7174;DHT22;3628;48.654;8.932;2023-07-31T13:45:14;25.20;94.30
7174;DHT22;3628;48.654;8.932;2023-07-31T13:47:39;25.40;93.30
7174;DHT22;3628;48.654;8.932;2023-07-31T13:50:05;25.40;92.90
7174;DHT22;3628;48.654;8.932;2023-07-31T13:52:31;25.40;91.90
7174;DHT22;3628;48.654;8.932;2023-07-31T13:54:56;25.30;90.50
7174;DHT22;3628;48.654;8.932;2023-07-31T13:57:22;25.20;90.80
7174;DHT22;3628;48.654;8.932;2023-07-31T13:59:48;24.90;90.50
7174;DHT22;3628;48.654;8.932;2023-07-31T14:02:14;24.80;91.10
7174;DHT22;3628;48.654;8.932;2023-07-31T14:04:40;24.60;91.30
7174;DHT22;3628;48.654;8.932;2023-07-31T14:07:06;24.40;91.10
7174;DHT22;3628;48.654;8.932;2023-07-31T14:09:32;24.30;91.50
7174;DHT22;3628;48.654;8.932;2023-07-31T14:11:57;24.20;91.50
7174;DHT22;3628;48.654;8.932;2023-07-31T14:14:23;24.10;91.50
7174;DHT22;3628;48.654;8.932;2023-07-31T14:16:48;23.90;91.00
7174;DHT22;3628;48.654;8.932;2023-07-31T14:19:14;23.90;91.40
7174;DHT22;3628;48.654;8.932;2023-07-31T14:21:39;23.80;91.40
7174;DHT22;3628;48.654;8.932;2023-07-31T14:24:05;23.90;91.60
7174;DHT22;3628;48.654;8.932;2023-07-31T14:26:31;24.00;91.40
7174;DHT22;3628;48.654;8.932;2023-07-31T14:28:56;23.90;91.30
7174;DHT22;3628;48.654;8.932;2023-07-31T14:31:22;23.90;91.60
7174;DHT22;3628;48.654;8.932;2023-07-31T14:33:48;23.80;91.70
7174;DHT22;3628;48.654;8.932;2023-07-31T14:36:13;23.90;91.20
7174;DHT22;3628;48.654;8.932;2023-07-31T14:38:39;23.90;91.40
7174;DHT22;3628;48.654;8.932;2023-07-31T14:41:04;24.00;91.70
7174;DHT22;3628;48.654;8.932;2023-07-31T14:43:30;23.90;91.00
7174;DHT22;3628;48.654;8.932;2023-07-31T14:45:55;24.00;91.80
7174;DHT22;3628;48.654;8.932;2023-07-31T14:48:24;24.10;91.10
7174;DHT22;3628;48.654;8.932;2023-07-31T14:50:50;24.00;91.10
7174;DHT22;3628;48.654;8.932;2023-07-31T14:53:15;24.10;91.60
7174;DHT22;3628;48.654;8.932;2023-07-31T14:55:41;24.20;91.70
7174;DHT22;3628;48.654;8.932;2023-07-31T14:58:06;24.30;91.80
7174;DHT22;3628;48.654;8.932;2023-07-31T15:00:32;24.30;91.40
7174;DHT22;3628;48.654;8.932;2023-07-31T15:02:58;24.30;91.00
7174;DHT22;3628;48.654;8.932;2023-07-31T15:05:24;24.20;91.20
7174;DHT22;3628;48.654;8.932;2023-07-31T15:07:49;24.20;91.60
7174;DHT22;3628;48.654;8.932;2023-07-31T15:10:15;24.10;91.50
7174;DHT22;3628;48.654;8.932;2023-07-31T15:12:41;24.00;92.10
7174;DHT22;3628;48.654;8.932;2023-07-31T15:15:07;24.00;92.50
7174;DHT22;3628;48.654;8.932;2023-07-31T15:17:33;23.90;92.40
7174;DHT22;3628;48.654;8.932;2023-07-31T15:19:59;24.00;92.50
7174;DHT22;3628;48.654;8.932;2023-07-31T15:22:25;24.00;92.60
7174;DHT22;3628;48.654;8.932;2023-07-31T15:24:51;24.00;92.60
7174;DHT22;3628;48.654;8.932;2023-07-31T15:27:17;24.10;92.00
7174;DHT22;3628;48.654;8.932;2023-07-31T15:29:42;24.10;92.10
7174;DHT22;3628;48.654;8.932;2023-07-31T15:32:08;24.10;92.40
7174;DHT22;3628;48.654;8.932;2023-07-31T15:34:34;24.00;92.20
7174;DHT22;3628;48.654;8.932;2023-07-31T15:36:59;23.90;92.20
7174;DHT22;3628;48.654;8.932;2023-07-31T15:39:25;24.00;92.50
7174;DHT22;3628;48.654;8.932;2023-07-31T15:41:50;24.00;92.50
7174;DHT22;3628;48.654;8.932;2023-07-31T15:44:16;24.00;92.00
7174;DHT22;3628;48.654;8.932;2023-07-31T15:46:41;24.00;92.20
7174;DHT22;3628;48.654;8.932;2023-07-31T15:49:07;23.90;92.00
7174;DHT22;3628;48.654;8.932;2023-07-31T15:51:33;23.80;91.50
7174;DHT22;3628;48.654;8.932;2023-07-31T15:53:59;23.60;92.00
7174;DHT22;3628;48.654;8.932;2023-07-31T15:56:24;23.60;92.30
7174;DHT22;3628;48.654;8.932;2023-07-31T15:58:50;23.60;92.80
7174;DHT22;3628;48.654;8.932;2023-07-31T16:01:16;23.70;92.80
7174;DHT22;3628;48.654;8.932;2023-07-31T16:03:41;23.90;93.00
7174;DHT22;3628;48.654;8.932;2023-07-31T16:06:07;23.90;92.90
7174;DHT22;3628;48.654;8.932;2023-07-31T16:08:33;23.90;92.80
7174;DHT22;3628;48.654;8.932;2023-07-31T16:10:58;24.00;93.20
7174;DHT22;3628;48.654;8.932;2023-07-31T16:13:24;24.10;92.70
7174;DHT22;3628;48.654;8.932;2023-07-31T16:15:49;24.00;92.60